createdAt,value
2018-03-19T00:00:43.138Z,-0.75
2018-03-19T00:01:53.136Z,-0.89
2018-03-19T00:03:03.126Z,-0.91
2018-03-19T00:04:13.128Z,-0.84
2018-03-19T00:05:23.115Z,-0.91
2018-03-19T00:06:32.838Z,-0.89
2018-03-19T00:07:42.831Z,-0.85
2018-03-19T00:08:52.873Z,-0.89
2018-03-19T00:10:02.866Z,-0.82
2018-03-19T00:11:12.325Z,-0.96
2018-03-19T00:12:22.329Z,-0.85
2018-03-19T00:13:32.368Z,-1
2018-03-19T00:14:42.368Z,-0.93
2018-03-19T00:15:52.361Z,-0.91
2018-03-19T00:17:02.092Z,-0.87
2018-03-19T00:18:11.811Z,-0.82
2018-03-19T00:19:21.807Z,-0.91
2018-03-19T00:20:31.857Z,-0.94
2018-03-19T00:21:41.854Z,-0.89
2018-03-19T00:22:51.850Z,-0.97
2018-03-19T00:24:01.841Z,-0.93
2018-03-19T00:25:11.833Z,-0.94
2018-03-19T00:26:21.833Z,-0.94
2018-03-19T00:27:31.570Z,-0.96
2018-03-19T00:28:41.295Z,-0.99
2018-03-19T00:29:51.298Z,-0.84
2018-03-19T00:31:01.292Z,-0.89
2018-03-19T00:32:11.288Z,-0.96
2018-03-19T00:33:21.015Z,-0.97
2018-03-19T00:34:31.042Z,-1
2018-03-19T00:35:41.038Z,-1
2018-03-19T00:36:51.044Z,-0.87
2018-03-19T00:38:01.047Z,-0.89
2018-03-19T00:39:11.043Z,-0.85
2018-03-19T00:40:21.039Z,-0.89
2018-03-19T00:41:31.032Z,-0.84
2018-03-19T00:42:41.028Z,-0.87
2018-03-19T00:43:50.757Z,-0.89
2018-03-19T00:45:00.480Z,-0.85
2018-03-19T00:46:09.943Z,-0.87
2018-03-19T00:47:19.414Z,-0.89
2018-03-19T00:48:29.460Z,-0.93
2018-03-19T00:49:39.183Z,-0.94
2018-03-19T00:50:48.910Z,-0.85
2018-03-19T00:51:58.906Z,-0.85
2018-03-19T00:53:08.633Z,-0.82
2018-03-19T00:54:18.667Z,-1.01
2018-03-19T00:55:28.662Z,-0.94
2018-03-19T00:56:38.403Z,-0.94
2018-03-19T00:57:48.132Z,-1.01
2018-03-19T00:58:58.131Z,-0.93
2018-03-19T01:00:08.123Z,-0.85
2018-03-19T01:01:17.584Z,-0.89
2018-03-19T01:02:27.577Z,-0.91
2018-03-19T01:03:37.572Z,-0.75
2018-03-19T01:04:47.308Z,-0.72
2018-03-19T01:05:57.301Z,-0.67
2018-03-19T01:07:07.141Z,-0.62
2018-03-19T01:08:17.136Z,-0.54
2018-03-19T01:09:27.185Z,-0.48
2018-03-19T01:10:36.914Z,-0.48
2018-03-19T01:11:46.913Z,-0.45
2018-03-19T01:12:56.637Z,-0.44
2018-03-19T01:14:06.365Z,-0.51
2018-03-19T01:15:16.095Z,-0.53
2018-03-19T01:16:26.080Z,-0.57
2018-03-19T01:17:36.091Z,-0.6
2018-03-19T01:18:45.817Z,-0.59
2018-03-19T01:19:55.809Z,-0.57
2018-03-19T01:21:05.538Z,-0.56
2018-03-19T01:22:15.527Z,-0.66
2018-03-19T01:23:24.993Z,-0.62
2018-03-19T01:24:34.716Z,-0.62
2018-03-19T01:25:44.716Z,-0.64
2018-03-19T01:26:54.453Z,-0.59
2018-03-19T01:28:04.491Z,-0.6
2018-03-19T01:29:14.486Z,-0.62
2018-03-19T01:30:24.485Z,-0.57
2018-03-19T01:31:34.479Z,-0.56
2018-03-19T01:32:43.937Z,-0.53
2018-03-19T01:33:53.412Z,-0.63
2018-03-19T01:35:03.404Z,-0.64
2018-03-19T01:36:13.140Z,-0.54
2018-03-19T01:37:23.138Z,-0.54
2018-03-19T01:38:32.867Z,-0.57
2018-03-19T01:39:42.599Z,-0.57
2018-03-19T01:40:52.592Z,-0.57
2018-03-19T01:42:02.588Z,-0.59
2018-03-19T01:43:12.340Z,-0.54
2018-03-19T01:44:22.338Z,-0.57
2018-03-19T01:45:32.076Z,-0.6
2018-03-19T01:46:42.076Z,-0.67
2018-03-19T01:47:52.059Z,-0.64
2018-03-19T01:49:01.788Z,-0.75
2018-03-19T01:50:11.510Z,-0.75
2018-03-19T01:51:21.502Z,-0.7
2018-03-19T01:52:31.498Z,-0.7
2018-03-19T01:53:41.327Z,-0.82
2018-03-19T01:54:50.789Z,-0.75
2018-03-19T01:56:00.514Z,-0.77
2018-03-19T01:57:10.286Z,-0.87
2018-03-19T01:58:20.291Z,-0.87
2018-03-19T01:59:30.284Z,-0.93
2018-03-19T02:00:40.279Z,-0.87
2018-03-19T02:01:50.277Z,-0.87
2018-03-19T02:03:00.278Z,-0.85
2018-03-19T02:04:10.001Z,-0.75
2018-03-19T02:05:19.778Z,-0.62
2018-03-19T02:06:29.774Z,-0.49
2018-03-19T02:07:39.501Z,-0.45
2018-03-19T02:08:49.494Z,-0.38
2018-03-19T02:09:59.490Z,-0.36
2018-03-19T02:11:09.265Z,-0.27
2018-03-19T02:12:19.258Z,-0.3
2018-03-19T02:13:29.251Z,-0.2
2018-03-19T02:14:39.251Z,-0.06
2018-03-19T02:15:49.253Z,-0.07
2018-03-19T02:16:58.979Z,0
2018-03-19T02:18:08.974Z,0.11
2018-03-19T02:19:18.971Z,0.13
2018-03-19T02:20:29.013Z,0.01
2018-03-19T02:21:39.014Z,0.08
2018-03-19T02:22:49.006Z,0.11
2018-03-19T02:23:59.002Z,0.16
2018-03-19T02:25:08.788Z,0.18
2018-03-19T02:26:18.786Z,0.29
2018-03-19T02:27:28.246Z,0.23
2018-03-19T02:28:38.239Z,0.24
2018-03-19T02:29:47.700Z,0.26
2018-03-19T02:30:57.698Z,0.33
2018-03-19T02:32:07.707Z,0.31
2018-03-19T02:33:17.172Z,0.36
2018-03-19T02:34:27.190Z,0.33
2018-03-19T02:35:37.189Z,0.31
2018-03-19T02:36:47.186Z,0.3
2018-03-19T02:37:56.663Z,0.3
2018-03-19T02:39:06.138Z,0.3
2018-03-19T02:40:15.882Z,0.3
2018-03-19T02:41:25.899Z,0.33
2018-03-19T02:42:35.912Z,0.3
2018-03-19T02:43:45.906Z,0.31
2018-03-19T02:44:55.663Z,0.27
2018-03-19T02:46:05.686Z,0.23
2018-03-19T02:47:15.693Z,0.24
2018-03-19T02:48:25.692Z,0.2
2018-03-19T02:49:35.721Z,0.2
2018-03-19T02:50:45.190Z,0.24
2018-03-19T02:51:55.294Z,0.23
2018-03-19T02:53:05.420Z,0.16
2018-03-19T02:54:15.436Z,0.16
2018-03-19T02:55:25.465Z,0.23
2018-03-19T02:56:35.210Z,0.26
2018-03-19T02:57:45.204Z,0.29
2018-03-19T02:58:55.211Z,0.24
2018-03-19T03:00:04.680Z,0.2
2018-03-19T03:01:14.408Z,0.18
2018-03-19T03:02:24.417Z,0.13
2018-03-19T03:03:34.202Z,0.16
2018-03-19T03:04:43.941Z,0.16
2018-03-19T03:05:53.681Z,0.19
2018-03-19T03:07:03.684Z,0.01
2018-03-19T03:08:13.419Z,0.06
2018-03-19T03:09:23.422Z,0.15
2018-03-19T03:10:32.907Z,0.08
2018-03-19T03:11:42.903Z,0.02
2018-03-19T03:12:52.629Z,0.06
2018-03-19T03:14:02.620Z,0
2018-03-19T03:15:12.350Z,0.01
2018-03-19T03:16:22.350Z,0
2018-03-19T03:17:32.348Z,0
2018-03-19T03:18:42.345Z,-0.02
2018-03-19T03:19:52.337Z,0.09
2018-03-19T03:21:02.328Z,0.01
2018-03-19T03:22:11.786Z,0.06
2018-03-19T03:23:21.545Z,0
2018-03-19T03:24:31.341Z,-0.02
2018-03-19T03:25:41.071Z,0
2018-03-19T03:26:51.070Z,0.11
2018-03-19T03:28:01.070Z,0.08
2018-03-19T03:29:10.794Z,0.01
2018-03-19T03:30:20.808Z,0.08
2018-03-19T03:31:30.828Z,0
2018-03-19T03:32:40.828Z,0
2018-03-19T03:33:50.832Z,0.12
2018-03-19T03:35:00.558Z,0.09
2018-03-19T03:36:10.553Z,-0.03
2018-03-19T03:37:20.559Z,0
2018-03-19T03:38:30.301Z,-0.05
2018-03-19T03:39:40.031Z,-0.07
2018-03-19T03:40:49.759Z,-0.13
2018-03-19T03:41:59.753Z,-0.17
2018-03-19T03:43:09.753Z,-0.1
2018-03-19T03:44:20.049Z,-0.12
2018-03-19T03:45:29.509Z,-0.12
2018-03-19T03:46:39.513Z,-0.12
2018-03-19T03:47:49.510Z,-0.02
2018-03-19T03:48:59.246Z,0.05
2018-03-19T03:50:09.242Z,0.08
2018-03-19T03:51:19.242Z,0.08
2018-03-19T03:52:29.343Z,0.08
2018-03-19T03:53:39.081Z,0.09
2018-03-19T03:54:48.806Z,-0.02
2018-03-19T03:55:58.803Z,0.06
2018-03-19T03:57:08.801Z,0.01
2018-03-19T03:58:18.802Z,-0.05
2018-03-19T03:59:28.795Z,-0.15
2018-03-19T04:03:26.489Z,-0.35
2018-03-19T04:04:35.951Z,-0.42
2018-03-19T04:05:45.949Z,-0.41
2018-03-19T04:06:55.672Z,-0.46
2018-03-19T04:08:05.664Z,-0.45
2018-03-19T04:09:15.443Z,-0.49
2018-03-19T04:10:25.439Z,-0.54
2018-03-19T04:11:35.428Z,-0.63
2018-03-19T04:12:45.418Z,-0.67
2018-03-19T04:13:55.416Z,-0.74
2018-03-19T04:15:04.875Z,-0.81
2018-03-19T04:16:14.600Z,-0.84
2018-03-19T04:17:24.598Z,-0.91
2018-03-19T04:18:34.053Z,-0.87
2018-03-19T04:19:44.051Z,-0.96
2018-03-19T04:20:53.525Z,-0.77
2018-03-19T04:22:03.519Z,-0.87
2018-03-19T04:23:12.988Z,-1
2018-03-19T04:24:23.075Z,-0.94
2018-03-19T04:25:33.085Z,-1
2018-03-19T04:26:42.818Z,-1
2018-03-19T04:27:52.820Z,-0.97
2018-03-19T04:29:02.547Z,-0.94
2018-03-19T04:30:12.548Z,-0.85
2018-03-19T04:31:22.594Z,-0.96
2018-03-19T04:32:32.588Z,-0.94
2018-03-19T04:33:42.715Z,-0.97
2018-03-19T04:34:52.705Z,-0.82
2018-03-19T04:36:02.697Z,-0.99
2018-03-19T04:37:12.691Z,-1.01
2018-03-19T04:38:22.244Z,-1.15
2018-03-19T04:39:32.248Z,-1.21
2018-03-19T04:40:42.247Z,-1.18
2018-03-19T04:41:52.254Z,-1.27
2018-03-19T04:43:02.394Z,-1.3
2018-03-19T04:44:12.452Z,-1.29
2018-03-19T04:45:22.232Z,-1.3
2018-03-19T04:46:31.955Z,-1.33
2018-03-19T04:47:41.954Z,-1.15
2018-03-19T04:48:51.947Z,-1.09
2018-03-19T04:50:01.677Z,-1.14
2018-03-19T04:51:11.401Z,-1.03
2018-03-19T04:52:21.397Z,-0.94
2018-03-19T04:53:31.392Z,-0.93
2018-03-19T04:54:41.117Z,-0.93
2018-03-19T04:55:51.111Z,-0.87
2018-03-19T04:57:01.102Z,-0.78
2018-03-19T04:58:11.096Z,-0.77
2018-03-19T04:59:21.093Z,-0.66
2018-03-19T05:00:30.572Z,-0.7
2018-03-19T05:01:40.309Z,-0.6
2018-03-19T05:02:50.306Z,-0.56
2018-03-19T05:04:00.302Z,-0.49
2018-03-19T05:05:10.037Z,-0.44
2018-03-19T05:06:19.763Z,-0.17
2018-03-19T05:07:29.319Z,-0.09
2018-03-19T05:08:39.310Z,0.06
2018-03-19T05:09:49.310Z,0.02
2018-03-19T05:10:59.041Z,0.11
2018-03-19T05:12:08.770Z,0.18
2018-03-19T05:13:18.764Z,0.16
2018-03-19T05:14:28.486Z,0.24
2018-03-19T05:15:38.536Z,0.23
2018-03-19T05:16:47.793Z,0.29
2018-03-19T05:17:57.787Z,0.29
2018-03-19T05:19:07.243Z,0.2
2018-03-19T05:20:16.967Z,0.18
2018-03-19T05:21:27.011Z,0.19
2018-03-19T05:22:37.004Z,0.12
2018-03-19T05:23:47.001Z,0.08
2018-03-19T05:24:56.730Z,-0.12
2018-03-19T05:26:06.461Z,-0.05
2018-03-19T05:27:16.189Z,-0.13
2018-03-19T05:28:25.920Z,-0.07
2018-03-19T05:29:35.911Z,-0.12
2018-03-19T05:30:45.101Z,-0.1
2018-03-19T05:31:54.840Z,-0.13
2018-03-19T05:33:04.566Z,-0.1
2018-03-19T05:34:14.693Z,-0.12
2018-03-19T05:35:24.681Z,-0.12
2018-03-19T05:36:34.678Z,-0.17
2018-03-19T05:37:44.135Z,-0.07
2018-03-19T05:38:54.130Z,-0.1
2018-03-19T05:40:03.855Z,0.08
2018-03-19T05:41:13.854Z,-0.09
2018-03-19T05:42:23.577Z,-0.06
2018-03-19T05:43:33.319Z,0.06
2018-03-19T05:44:43.340Z,-0.07
2018-03-19T05:45:53.335Z,0
2018-03-19T05:47:03.065Z,0.02
2018-03-19T05:48:12.602Z,-0.12
2018-03-19T05:49:22.334Z,0.09
2018-03-19T05:50:31.794Z,0.08
2018-03-19T05:51:41.835Z,0.01
2018-03-19T05:52:51.840Z,0.01
2018-03-19T05:54:01.832Z,0.02
2018-03-19T05:55:11.299Z,0
2018-03-19T05:56:21.300Z,0.01
2018-03-19T05:57:31.297Z,0.11
2018-03-19T05:58:41.291Z,-0.02
2018-03-19T05:59:51.021Z,0.06
2018-03-19T06:01:01.020Z,0.09
2018-03-19T06:02:10.483Z,0.08
2018-03-19T06:03:20.487Z,0.09
2018-03-19T06:04:30.488Z,0.08
2018-03-19T06:05:40.229Z,0.05
2018-03-19T06:06:49.955Z,0.15
2018-03-19T06:07:59.956Z,0.08
2018-03-19T06:09:09.679Z,0.15
2018-03-19T06:10:19.674Z,0.15
2018-03-19T06:11:29.405Z,0.23
2018-03-19T06:12:39.395Z,0.2
2018-03-19T06:13:49.389Z,0.26
2018-03-19T06:14:59.387Z,0.3
2018-03-19T06:16:08.593Z,0.36
2018-03-19T06:17:18.365Z,0.31
2018-03-19T06:18:28.369Z,0.33
2018-03-19T06:19:38.371Z,0.34
2018-03-19T06:20:48.372Z,0.4
2018-03-19T06:21:58.368Z,0.36
2018-03-19T06:23:08.097Z,0.44
2018-03-19T06:24:18.104Z,0.3
2018-03-19T06:25:27.833Z,0.39
2018-03-19T06:26:37.835Z,0.47
2018-03-19T06:27:47.669Z,0.55
2018-03-19T06:28:57.403Z,0.51
2018-03-19T06:30:07.404Z,0.51
2018-03-19T06:31:17.400Z,0.61
2018-03-19T06:32:27.135Z,0.61
2018-03-19T06:33:36.608Z,0.67
2018-03-19T06:34:46.334Z,0.66
2018-03-19T06:35:56.322Z,0.7
2018-03-19T06:37:06.318Z,0.82
2018-03-19T06:38:15.792Z,0.81
2018-03-19T06:39:25.801Z,0.85
2018-03-19T06:40:35.261Z,0.91
2018-03-19T06:41:45.259Z,0.94
2018-03-19T06:42:54.715Z,0.95
2018-03-19T06:44:04.439Z,1
2018-03-19T06:45:13.903Z,0.99
2018-03-19T06:46:23.916Z,1
2018-03-19T06:47:33.919Z,1.04
2018-03-19T06:48:43.650Z,1.12
2018-03-19T06:49:53.394Z,1.14
2018-03-19T06:51:03.393Z,1.12
2018-03-19T06:52:12.685Z,1.16
2018-03-19T06:53:22.143Z,1.16
2018-03-19T06:54:32.147Z,1.24
2018-03-19T06:55:41.871Z,1.13
2018-03-19T06:56:51.869Z,1.27
2018-03-19T06:58:01.592Z,1.18
2018-03-19T06:59:11.604Z,1.18
2018-03-19T07:00:21.601Z,1.22
2018-03-19T07:01:31.320Z,1.28
2018-03-19T07:02:41.048Z,1.27
2018-03-19T07:03:51.043Z,1.22
2018-03-19T07:05:01.048Z,1.32
2018-03-19T07:06:10.780Z,1.28
2018-03-19T07:07:20.518Z,1.25
2018-03-19T07:08:30.241Z,1.32
2018-03-19T07:09:39.976Z,1.4
2018-03-19T07:10:49.702Z,1.38
2018-03-19T07:11:59.795Z,1.48
2018-03-19T07:13:10.013Z,1.4
2018-03-19T07:14:19.749Z,1.49
2018-03-19T07:15:29.473Z,1.56
2018-03-19T07:16:39.477Z,1.53
2018-03-19T07:17:49.214Z,1.57
2018-03-19T07:18:58.948Z,1.56
2018-03-19T07:20:08.972Z,1.56
2018-03-19T07:21:18.740Z,1.53
2018-03-19T07:22:28.740Z,1.57
2018-03-19T07:23:38.859Z,1.56
2018-03-19T07:24:48.879Z,1.57
2018-03-19T07:25:58.878Z,1.57
2018-03-19T07:27:10.132Z,1.53
2018-03-19T07:28:20.136Z,1.5
2018-03-19T07:29:30.150Z,1.5
2018-03-19T07:30:40.156Z,1.57
2018-03-19T07:31:50.153Z,1.58
2018-03-19T07:33:00.151Z,1.6
2018-03-19T07:34:10.163Z,1.6
2018-03-19T07:35:19.932Z,1.76
2018-03-19T07:36:29.932Z,1.71
2018-03-19T07:37:39.927Z,1.79
2018-03-19T07:38:49.933Z,1.82
2018-03-19T07:39:59.927Z,1.85
2018-03-19T07:41:09.656Z,1.82
2018-03-19T07:42:19.673Z,1.84
2018-03-19T07:43:29.137Z,1.86
2018-03-19T07:44:38.879Z,1.85
2018-03-19T07:45:48.878Z,1.93
2018-03-19T07:46:58.614Z,1.79
2018-03-19T07:48:08.611Z,1.88
2018-03-19T07:49:18.348Z,1.85
2018-03-19T07:50:28.445Z,1.92
2018-03-19T07:51:38.177Z,1.93
2018-03-19T07:52:48.169Z,1.89
2018-03-19T07:53:58.168Z,1.86
2018-03-19T07:55:08.165Z,1.97
2018-03-19T07:56:17.894Z,2.03
2018-03-19T07:57:27.891Z,1.98
2018-03-19T07:58:37.904Z,1.93
2018-03-19T07:59:47.916Z,1.98
2018-03-19T08:00:57.932Z,2.04
2018-03-19T08:02:07.930Z,1.97
2018-03-19T08:03:17.656Z,1.93
2018-03-19T08:04:27.644Z,2.04
2018-03-19T08:05:37.652Z,1.95
2018-03-19T08:06:47.676Z,2.04
2018-03-19T08:07:57.728Z,2.08
2018-03-19T08:09:06.925Z,2.1
2018-03-19T08:10:16.384Z,2.14
2018-03-19T08:11:26.437Z,2.12
2018-03-19T08:12:35.636Z,2.12
2018-03-19T08:13:45.375Z,2.19
2018-03-19T08:14:55.114Z,2.26
2018-03-19T08:16:04.853Z,2.21
2018-03-19T08:17:14.850Z,2.23
2018-03-19T08:18:25.112Z,2.23
2018-03-19T08:19:35.104Z,2.23
2018-03-19T08:20:45.104Z,2.19
2018-03-19T08:21:55.163Z,2.33
2018-03-19T08:23:04.897Z,2.36
2018-03-19T08:24:14.678Z,2.51
2018-03-19T08:25:24.414Z,2.44
2018-03-19T08:26:34.412Z,2.47
2018-03-19T08:27:44.153Z,2.51
2018-03-19T08:28:53.881Z,2.61
2018-03-19T08:30:03.877Z,2.61
2018-03-19T08:31:13.342Z,2.7
2018-03-19T08:32:23.349Z,2.82
2018-03-19T08:33:33.396Z,2.94
2018-03-19T08:34:43.132Z,3.06
2018-03-19T08:35:53.127Z,3.13
2018-03-19T08:37:02.852Z,3.31
2018-03-19T08:38:12.628Z,3.49
2018-03-19T08:39:22.668Z,3.55
2018-03-19T08:40:32.405Z,3.7
2018-03-19T08:41:42.136Z,3.74
2018-03-19T08:42:52.305Z,3.78
2018-03-19T08:44:02.046Z,3.91
2018-03-19T08:45:11.781Z,3.86
2018-03-19T08:46:21.788Z,4.02
2018-03-19T08:47:31.791Z,4.12
2018-03-19T08:48:41.528Z,4.12
2018-03-19T08:49:50.994Z,4.1
2018-03-19T08:51:00.462Z,4.12
2018-03-19T08:52:10.200Z,4.16
2018-03-19T08:53:20.202Z,4.22
2018-03-19T08:54:30.314Z,4.25
2018-03-19T08:55:40.065Z,4.31
2018-03-19T08:56:49.804Z,4.43
2018-03-19T08:57:59.536Z,4.42
2018-03-19T08:59:09.844Z,4.48
2018-03-19T09:00:19.390Z,4.53
2018-03-19T09:01:29.123Z,4.79
2018-03-19T09:02:38.861Z,4.97
2018-03-19T09:03:48.593Z,5.02
2018-03-19T09:04:58.327Z,5.16
2018-03-19T09:06:07.844Z,5.15
2018-03-19T09:07:17.904Z,5.23
2018-03-19T09:08:27.697Z,5.19
2018-03-19T09:09:37.696Z,5.34
2018-03-19T09:10:47.161Z,5.23
2018-03-19T09:11:57.242Z,5.25
2018-03-19T09:13:06.988Z,5.25
2018-03-19T09:14:16.463Z,5.31
2018-03-19T09:15:26.463Z,5.33
2018-03-19T09:16:36.460Z,5.31
2018-03-19T09:17:46.194Z,5.51
2018-03-19T09:18:56.197Z,5.61
2018-03-19T09:20:06.199Z,5.72
2018-03-19T09:21:15.935Z,5.87
2018-03-19T09:22:25.941Z,5.87
2018-03-19T09:23:35.678Z,5.97
2018-03-19T09:24:45.145Z,6.01
2018-03-19T09:25:54.345Z,6.16
2018-03-19T09:27:04.076Z,6.26
2018-03-19T09:28:14.072Z,6.31
2018-03-19T09:29:24.076Z,5.95
2018-03-19T09:30:33.814Z,5.97
2018-03-19T09:31:43.567Z,5.62
2018-03-19T09:32:53.322Z,5.33
2018-03-19T09:34:03.069Z,5.08
2018-03-19T09:35:12.930Z,4.94
2018-03-19T09:36:23.027Z,4.94
2018-03-19T09:37:33.032Z,5.01
2018-03-19T09:38:42.508Z,4.82
2018-03-19T09:39:52.250Z,4.7
2018-03-19T09:41:02.363Z,4.68
2018-03-19T09:42:11.834Z,4.79
2018-03-19T09:43:21.569Z,4.66
2018-03-19T09:44:31.580Z,4.57
2018-03-19T09:45:41.349Z,4.61
2018-03-19T09:46:51.610Z,4.78
2018-03-19T09:48:01.787Z,4.76
2018-03-19T09:49:11.909Z,4.49
2018-03-19T09:50:21.624Z,4.31
2018-03-19T09:51:31.778Z,4.21
2018-03-19T09:52:41.862Z,4.34
2018-03-19T09:53:51.695Z,4.46
2018-03-19T09:55:01.701Z,4.61
2018-03-19T09:56:11.179Z,4.6
2018-03-19T09:57:21.191Z,4.5
2018-03-19T09:58:30.967Z,4.56
2018-03-19T09:59:40.971Z,4.56
2018-03-19T10:00:50.976Z,4.5
2018-03-19T10:02:00.979Z,4.45
2018-03-19T10:03:10.464Z,4.34
2018-03-19T10:04:20.255Z,4.34
2018-03-19T10:05:29.725Z,4.3
2018-03-19T10:06:39.732Z,4.4
2018-03-19T10:07:49.204Z,4.3
2018-03-19T10:08:58.667Z,4.3
2018-03-19T10:10:08.174Z,4.34
2018-03-19T10:11:17.921Z,4.39
2018-03-19T10:12:27.923Z,4.42
2018-03-19T10:13:37.928Z,4.32
2018-03-19T10:14:47.673Z,4.3
2018-03-19T10:15:57.680Z,4.22
2018-03-19T10:17:07.162Z,4.16
2018-03-19T10:18:17.231Z,4.14
2018-03-19T10:19:26.962Z,4.28
2018-03-19T10:20:36.972Z,4.12
2018-03-19T10:21:47.105Z,4.16
2018-03-19T10:22:56.584Z,4.1
2018-03-19T10:24:06.052Z,4.06
2018-03-19T10:25:16.056Z,4.07
2018-03-19T10:26:26.073Z,4.04
2018-03-19T10:27:36.442Z,4.1
2018-03-19T10:28:46.454Z,3.96
2018-03-19T10:29:56.457Z,3.81
2018-03-19T10:31:06.194Z,3.74
2018-03-19T10:32:15.661Z,3.7
2018-03-19T10:33:25.798Z,3.73
2018-03-19T10:34:35.930Z,3.58
2018-03-19T10:35:45.402Z,3.71
2018-03-19T10:36:55.403Z,3.7
2018-03-19T10:38:05.526Z,3.82
2018-03-19T10:39:15.633Z,3.84
2018-03-19T10:40:25.394Z,3.92
2018-03-19T10:41:35.397Z,4.16
2018-03-19T10:42:45.142Z,4.24
2018-03-19T10:43:55.149Z,4.5
2018-03-19T10:45:04.891Z,4.42
2018-03-19T10:46:14.896Z,4.5
2018-03-19T10:47:24.900Z,4.49
2018-03-19T10:48:34.633Z,4.57
2018-03-19T10:49:44.643Z,4.71
2018-03-19T10:50:54.682Z,4.9
2018-03-19T10:52:04.698Z,5
2018-03-19T10:53:14.430Z,4.95
2018-03-19T10:54:24.432Z,5.01
2018-03-19T10:55:33.897Z,5.12
2018-03-19T10:56:43.466Z,5.13
2018-03-19T10:57:53.482Z,5.12
2018-03-19T10:59:03.487Z,5.12
2018-03-19T11:00:13.222Z,5.02
2018-03-19T11:01:23.033Z,4.98
2018-03-19T11:02:33.094Z,4.86
2018-03-19T11:03:42.832Z,4.79
2018-03-19T11:04:52.579Z,4.84
2018-03-19T11:06:02.317Z,4.98
2018-03-19T11:07:12.058Z,4.9
2018-03-19T11:08:21.797Z,4.84
2018-03-19T11:09:31.271Z,4.79
2018-03-19T11:10:41.281Z,4.79
2018-03-19T11:11:51.193Z,4.74
2018-03-19T11:13:01.542Z,4.76
2018-03-19T11:14:11.649Z,4.83
2018-03-19T11:15:21.667Z,5.01
2018-03-19T11:16:31.400Z,5.18
2018-03-19T11:17:40.330Z,5.36
2018-03-19T11:18:50.327Z,5.58
2018-03-19T11:20:00.158Z,5.79
2018-03-19T11:21:09.975Z,5.87
2018-03-19T11:22:19.985Z,6.1
2018-03-19T11:23:30.113Z,6.2
2018-03-19T11:24:39.850Z,6.34
2018-03-19T11:25:49.324Z,6.59
2018-03-19T11:26:59.426Z,6.62
2018-03-19T11:28:09.429Z,6.77
2018-03-19T11:29:19.166Z,6.9
2018-03-19T11:30:28.646Z,7.04
2018-03-19T11:31:38.385Z,7.05
2018-03-19T11:32:48.388Z,7.11
2018-03-19T11:33:57.858Z,7
2018-03-19T11:35:07.872Z,6.97
2018-03-19T11:36:17.878Z,6.87
2018-03-19T11:37:27.934Z,6.9
2018-03-19T11:38:37.668Z,6.9
2018-03-19T11:39:47.677Z,6.93
2018-03-19T11:40:57.677Z,6.89
2018-03-19T11:42:06.885Z,6.9
2018-03-19T11:43:16.639Z,6.92
2018-03-19T11:44:26.647Z,6.97
2018-03-19T11:45:36.407Z,6.96
2018-03-19T11:46:46.138Z,6.96
2018-03-19T11:47:55.878Z,7.01
2018-03-19T11:49:05.614Z,6.96
2018-03-19T11:50:15.354Z,7.05
2018-03-19T11:51:25.095Z,7.04
2018-03-19T11:52:35.106Z,7.1
2018-03-19T11:53:44.580Z,7.1
2018-03-19T11:54:54.336Z,7.07
2018-03-19T11:56:04.078Z,7.07
2018-03-19T11:57:13.814Z,7.05
2018-03-19T11:58:23.933Z,7.01
2018-03-19T11:59:33.674Z,7.03
2018-03-19T12:00:43.797Z,7.15
2018-03-19T12:01:53.554Z,6.97
2018-03-19T12:03:03.024Z,6.85
2018-03-19T12:04:13.030Z,6.78
2018-03-19T12:05:22.830Z,6.57
2018-03-19T12:06:32.877Z,6.65
2018-03-19T12:07:42.944Z,6.75
2018-03-19T12:08:53.001Z,6.75
2018-03-19T12:10:02.570Z,7.08
2018-03-19T12:11:12.037Z,7.93
2018-03-19T12:12:21.947Z,8.79
2018-03-19T12:13:31.962Z,9.37
2018-03-19T12:14:41.711Z,9.39
2018-03-19T12:15:51.721Z,9.55
2018-03-19T12:17:01.781Z,9.64
2018-03-19T12:18:11.256Z,9.4
2018-03-19T12:19:21.264Z,9.15
2018-03-19T12:20:30.802Z,8.78
2018-03-19T12:21:40.809Z,8.5
2018-03-19T12:22:50.824Z,8.32
2018-03-19T12:24:01.084Z,8.31
2018-03-19T12:25:10.287Z,8.49
2018-03-19T12:26:20.297Z,8.69
2018-03-19T12:27:30.047Z,8.71
2018-03-19T12:28:40.061Z,8.93
2018-03-19T12:29:50.073Z,9.36
2018-03-19T12:30:59.816Z,9.55
2018-03-19T12:32:09.346Z,9.81
2018-03-19T12:33:19.359Z,9.62
2018-03-19T12:34:29.377Z,9.16
2018-03-19T12:35:39.387Z,8.89
2018-03-19T12:36:49.135Z,8.72
2018-03-19T12:37:59.153Z,8.52
2018-03-19T12:39:08.911Z,8.27
2018-03-19T12:40:18.912Z,7.91
2018-03-19T12:41:28.920Z,7.88
2018-03-19T12:42:38.927Z,7.84
2018-03-19T12:43:48.954Z,7.7
2018-03-19T12:44:58.695Z,7.58
2018-03-19T12:46:08.438Z,7.59
2018-03-19T12:47:18.448Z,7.37
2018-03-19T12:48:28.451Z,7.4
2018-03-19T12:49:38.465Z,7.21
2018-03-19T12:50:48.209Z,7.07
2018-03-19T12:51:58.342Z,6.87
2018-03-19T12:53:08.347Z,6.78
2018-03-19T12:54:17.827Z,6.5
2018-03-19T12:55:27.843Z,6.56
2018-03-19T12:56:37.910Z,6.5
2018-03-19T12:57:47.642Z,6.7
2018-03-19T12:58:57.648Z,6.92
2018-03-19T13:00:07.656Z,7.81
2018-03-19T13:01:17.661Z,8.61
2018-03-19T13:02:27.411Z,9.36
2018-03-19T13:03:37.423Z,10.25
2018-03-19T13:04:47.432Z,10.84
2018-03-19T13:05:57.173Z,11.33
2018-03-19T13:07:06.916Z,11.59
2018-03-19T13:08:16.664Z,11.96
2018-03-19T13:09:26.673Z,12.58
2018-03-19T13:10:36.196Z,13.3
2018-03-19T13:11:45.931Z,13.89
2018-03-19T13:12:55.701Z,14.52
2018-03-19T13:14:05.821Z,15.1
2018-03-19T13:15:15.829Z,15.48
2018-03-19T13:16:25.410Z,15.96
2018-03-19T13:17:35.423Z,16.25
2018-03-19T13:18:45.433Z,16.28
2018-03-19T13:19:55.450Z,15.57
2018-03-19T13:21:05.488Z,14.73
2018-03-19T13:22:15.604Z,13.57
2018-03-19T13:23:25.620Z,13.4
2018-03-19T13:24:35.762Z,12.63
2018-03-19T13:25:45.617Z,11.65
2018-03-19T13:26:55.635Z,11.4
2018-03-19T13:28:05.378Z,10.98
2018-03-19T13:29:15.393Z,10.2
2018-03-19T13:30:25.273Z,9.85
2018-03-19T13:31:35.298Z,9.51
2018-03-19T13:32:45.374Z,8.35
2018-03-19T13:33:55.377Z,8.52
2018-03-19T13:35:05.167Z,8.34
2018-03-19T13:36:14.911Z,7.91
2018-03-19T13:37:24.390Z,7.88
2018-03-19T13:38:34.138Z,7.19
2018-03-19T13:39:44.197Z,6.8
2018-03-19T13:40:53.939Z,6.64
2018-03-19T13:42:03.681Z,6.36
2018-03-19T13:43:13.691Z,6.06
2018-03-19T13:44:23.427Z,5.79
2018-03-19T13:45:32.951Z,5.54
2018-03-19T13:46:42.973Z,5.34
2018-03-19T13:47:52.708Z,5.41
2018-03-19T13:49:02.479Z,5.22
2018-03-19T13:50:12.213Z,5.1
2018-03-19T13:51:21.958Z,5
2018-03-19T13:52:31.966Z,5.04
2018-03-19T13:53:41.836Z,5.05
2018-03-19T13:54:51.900Z,4.83
2018-03-19T13:56:01.908Z,4.92
2018-03-19T13:57:11.385Z,5
2018-03-19T13:58:21.396Z,5.02
2018-03-19T13:59:31.181Z,5.01
2018-03-19T14:00:40.923Z,5.01
2018-03-19T14:01:50.937Z,5.07
2018-03-19T14:03:00.949Z,5.04
2018-03-19T14:04:10.690Z,4.9
2018-03-19T14:05:20.747Z,4.67
2018-03-19T14:06:30.758Z,4.79
2018-03-19T14:07:40.761Z,4.75
2018-03-19T14:08:50.901Z,4.78
2018-03-19T14:10:00.904Z,4.67
2018-03-19T14:11:10.373Z,4.71
2018-03-19T14:12:20.378Z,4.83
2018-03-19T14:13:30.496Z,4.78
2018-03-19T14:14:39.964Z,4.86
2018-03-19T14:15:49.974Z,4.92
2018-03-19T14:17:00.041Z,5.19
2018-03-19T14:18:09.990Z,5.34
2018-03-19T14:19:19.757Z,5.22
2018-03-19T14:20:29.771Z,5.29
2018-03-19T14:21:39.825Z,5.29
2018-03-19T14:22:49.558Z,5.1
2018-03-19T14:23:59.291Z,5.15
2018-03-19T14:25:09.032Z,5.22
2018-03-19T14:26:19.036Z,5.31
2018-03-19T14:27:28.813Z,5.43
2018-03-19T14:28:39.143Z,5.28
2018-03-19T14:29:48.616Z,5.29
2018-03-19T14:30:58.415Z,5.43
2018-03-19T14:32:07.892Z,5.51
2018-03-19T14:33:17.685Z,5.64
2018-03-19T14:34:27.520Z,5.65
2018-03-19T14:35:37.525Z,5.62
2018-03-19T14:36:47.527Z,5.72
2018-03-19T14:37:57.531Z,5.77
2018-03-19T14:39:07.267Z,5.83
2018-03-19T14:40:17.010Z,6.06
2018-03-19T14:41:27.021Z,6.43
2018-03-19T14:42:36.763Z,6.56
2018-03-19T14:43:46.771Z,6.87
2018-03-19T14:44:56.789Z,6.77
2018-03-19T14:46:06.534Z,6.93
2018-03-19T14:47:16.549Z,7.1
2018-03-19T14:48:26.568Z,7.13
2018-03-19T14:49:36.591Z,7.58
2018-03-19T14:50:47.039Z,7.58
2018-03-19T14:51:57.009Z,7.48
2018-03-19T14:53:07.015Z,7.43
2018-03-19T14:54:16.754Z,7.43
2018-03-19T14:55:26.242Z,7.55
2018-03-19T14:56:36.253Z,7.91
2018-03-19T14:57:46.268Z,7.93
2018-03-19T14:58:56.268Z,7.88
2018-03-19T15:00:06.011Z,7.85
2018-03-19T15:01:15.326Z,7.77
2018-03-19T15:02:25.343Z,7.95
2018-03-19T15:03:35.086Z,7.74
2018-03-19T15:04:44.849Z,7.99
2018-03-19T15:05:54.863Z,8.08
2018-03-19T15:07:04.882Z,7.88
2018-03-19T15:08:14.630Z,7.74
2018-03-19T15:09:24.629Z,7.93
2018-03-19T15:10:34.113Z,7.93
2018-03-19T15:11:44.118Z,8.01
2018-03-19T15:12:54.125Z,8.31
2018-03-19T15:14:03.866Z,8.23
2018-03-19T15:15:13.072Z,8.21
2018-03-19T15:16:23.088Z,8.42
2018-03-19T15:17:33.101Z,8.57
2018-03-19T15:18:42.942Z,8.17
2018-03-19T15:19:52.691Z,7.78
2018-03-19T15:21:02.436Z,7.81
2018-03-19T15:22:12.183Z,7.88
2018-03-19T15:23:21.937Z,7.77
2018-03-19T15:24:31.943Z,7.61
2018-03-19T15:25:41.950Z,7.74
2018-03-19T15:26:51.958Z,7.33
2018-03-19T15:28:01.985Z,7.26
2018-03-19T15:29:11.467Z,7.23